createdAt,value
2023-03-13T00:01:19.900Z,8.97
2023-03-13T00:03:48.173Z,10.00
2023-03-13T00:06:18.197Z,10.77
2023-03-13T00:08:46.345Z,9.47
2023-03-13T00:11:16.212Z,10.47
2023-03-13T00:13:44.889Z,11.40
2023-03-13T00:16:14.961Z,11.33
2023-03-13T00:18:46.937Z,10.37
2023-03-13T00:21:15.082Z,10.43
2023-03-13T00:23:44.560Z,9.60
2023-03-13T00:26:14.516Z,9.00
2023-03-13T00:28:45.625Z,9.77
2023-03-13T00:31:15.917Z,9.53
2023-03-13T00:33:46.532Z,9.10
2023-03-13T00:36:16.468Z,8.40
2023-03-13T00:38:46.600Z,8.53
2023-03-13T00:41:16.434Z,8.53
2023-03-13T00:43:45.583Z,8.53
2023-03-13T00:46:14.693Z,8.33
2023-03-13T00:48:42.975Z,8.60
2023-03-13T00:51:11.641Z,7.77
2023-03-13T00:53:39.630Z,8.67
2023-03-13T00:56:11.167Z,8.70
2023-03-13T00:58:40.940Z,9.07
2023-03-13T01:01:12.309Z,8.30
2023-03-13T01:03:41.755Z,8.30
2023-03-13T01:06:12.531Z,9.00
2023-03-13T01:08:40.764Z,8.53
2023-03-13T01:11:12.017Z,8.37
2023-03-13T01:13:40.553Z,8.07
2023-03-13T01:16:10.717Z,7.60
2023-03-13T01:18:42.514Z,7.43
2023-03-13T01:21:10.660Z,7.43
2023-03-13T01:23:38.935Z,7.83
2023-03-13T01:26:09.618Z,7.30
2023-03-13T01:28:38.096Z,7.50
2023-03-13T01:31:13.121Z,7.30
2023-03-13T01:33:41.492Z,7.10
2023-03-13T01:36:10.332Z,6.20
2023-03-13T01:38:38.882Z,6.40
2023-03-13T01:41:09.584Z,5.87
2023-03-13T01:43:38.515Z,5.90
2023-03-13T01:46:14.589Z,5.43
2023-03-13T01:48:48.009Z,5.83
2023-03-13T01:51:20.861Z,5.13
2023-03-13T01:53:52.674Z,4.87
2023-03-13T01:56:27.610Z,5.10
2023-03-13T01:58:58.264Z,4.80
2023-03-13T02:01:26.837Z,5.30
2023-03-13T02:03:55.206Z,4.80
2023-03-13T02:06:23.329Z,5.33
2023-03-13T02:08:56.616Z,5.10
2023-03-13T02:11:33.893Z,5.20
2023-03-13T02:14:04.531Z,4.57
2023-03-13T02:16:34.070Z,4.73
2023-03-13T02:19:04.170Z,4.70
2023-03-13T02:21:39.014Z,4.77
2023-03-13T02:24:13.901Z,5.23
2023-03-13T02:26:43.419Z,5.30
2023-03-13T02:29:18.513Z,5.10
2023-03-13T02:31:48.065Z,4.73
2023-03-13T02:34:21.662Z,4.37
2023-03-13T02:36:51.099Z,4.87
2023-03-13T02:39:22.689Z,4.17
2023-03-13T02:41:53.863Z,4.30
2023-03-13T02:44:21.881Z,4.77
2023-03-13T02:46:52.428Z,4.37
2023-03-13T02:49:27.292Z,4.60
2023-03-13T02:51:57.962Z,4.67
2023-03-13T02:54:30.507Z,5.20
2023-03-13T02:57:03.220Z,4.70
2023-03-13T02:59:31.207Z,4.40
2023-03-13T03:01:59.313Z,4.23
2023-03-13T03:04:27.762Z,4.40
2023-03-13T03:06:55.983Z,4.30
2023-03-13T03:09:24.342Z,4.80
2023-03-13T03:11:52.490Z,5.40
2023-03-13T03:14:21.870Z,4.50
2023-03-13T03:16:50.052Z,4.27
2023-03-13T03:19:20.003Z,3.90
2023-03-13T03:21:49.477Z,4.70
2023-03-13T03:24:17.560Z,4.40
2023-03-13T03:26:46.574Z,4.70
2023-03-13T03:29:14.674Z,4.90
2023-03-13T03:31:44.076Z,4.90
2023-03-13T03:34:12.118Z,5.03
2023-03-13T03:36:40.104Z,4.27
2023-03-13T03:39:09.101Z,3.97
2023-03-13T03:41:37.906Z,4.10
2023-03-13T03:44:06.487Z,3.90
2023-03-13T03:46:34.456Z,4.17
2023-03-13T03:49:03.805Z,3.93
2023-03-13T03:51:31.786Z,4.50
2023-03-13T03:53:59.967Z,4.23
2023-03-13T03:56:28.930Z,4.10
2023-03-13T03:58:56.970Z,4.30
2023-03-13T04:01:24.946Z,4.17
2023-03-13T04:03:52.930Z,4.60
2023-03-13T04:06:22.304Z,4.00
2023-03-13T04:08:50.383Z,4.23
2023-03-13T04:11:18.597Z,4.43
2023-03-13T04:13:46.559Z,4.60
2023-03-13T04:16:14.789Z,4.57
2023-03-13T04:18:43.050Z,4.63
2023-03-13T04:21:11.080Z,4.20
2023-03-13T04:23:40.500Z,4.93
2023-03-13T04:26:08.506Z,4.73
2023-03-13T04:28:36.488Z,4.87
2023-03-13T04:31:04.654Z,5.53
2023-03-13T04:33:32.675Z,5.30
2023-03-13T04:36:00.727Z,4.97
2023-03-13T04:38:28.727Z,5.13
2023-03-13T04:40:58.094Z,6.23
2023-03-13T04:43:26.051Z,5.57
2023-03-13T04:45:55.805Z,5.30
2023-03-13T04:48:23.842Z,6.00
2023-03-13T04:50:51.798Z,5.77
2023-03-13T04:53:20.185Z,5.80
2023-03-13T04:55:49.726Z,5.70
2023-03-13T04:58:19.089Z,5.30
2023-03-13T05:00:47.060Z,5.37
2023-03-13T05:03:15.039Z,5.77
2023-03-13T05:05:45.662Z,5.40
2023-03-13T05:08:13.618Z,5.53
2023-03-13T05:10:43.456Z,5.17
2023-03-13T05:13:11.940Z,5.60
2023-03-13T05:15:41.334Z,4.90
2023-03-13T05:18:09.317Z,5.07
2023-03-13T05:20:37.301Z,5.23
2023-03-13T05:23:05.322Z,4.80
2023-03-13T05:25:33.393Z,4.80
2023-03-13T05:28:01.344Z,5.00
2023-03-13T05:30:29.520Z,5.03
2023-03-13T05:32:59.014Z,6.27
2023-03-13T05:35:27.072Z,6.07
2023-03-13T05:37:55.483Z,5.57
2023-03-13T05:40:23.473Z,6.50
2023-03-13T05:42:51.469Z,7.10
2023-03-13T05:45:20.271Z,7.13
2023-03-13T05:47:48.236Z,7.40
2023-03-13T05:50:17.792Z,7.13
2023-03-13T05:52:45.760Z,7.00
2023-03-13T05:55:13.746Z,7.20
2023-03-13T05:57:44.959Z,7.47
2023-03-13T06:00:14.129Z,7.03
2023-03-13T06:02:42.571Z,6.47
2023-03-13T06:05:11.408Z,7.20
2023-03-13T06:07:40.860Z,7.07
2023-03-13T06:10:09.569Z,7.27
2023-03-13T06:12:39.892Z,6.57
2023-03-13T06:15:12.198Z,6.87
2023-03-13T06:17:40.432Z,7.30
2023-03-13T06:20:09.555Z,7.17
2023-03-13T06:22:37.564Z,7.67
2023-03-13T06:25:08.441Z,7.77
2023-03-13T06:27:36.620Z,6.80
2023-03-13T06:30:05.098Z,7.00
2023-03-13T06:32:33.306Z,7.07
2023-03-13T06:35:01.381Z,6.73
2023-03-13T06:37:29.357Z,7.10
2023-03-13T06:39:57.622Z,6.37
2023-03-13T06:42:26.987Z,6.20
2023-03-13T06:44:54.981Z,6.33
2023-03-13T06:47:22.997Z,7.13
2023-03-13T06:49:51.463Z,6.53
2023-03-13T06:52:20.599Z,6.50
2023-03-13T06:54:50.709Z,6.43
2023-03-13T06:57:19.010Z,7.80
2023-03-13T06:59:48.412Z,6.97
2023-03-13T07:02:16.869Z,6.80
2023-03-13T07:04:46.492Z,6.43
2023-03-13T07:07:25.780Z,6.37
2023-03-13T07:09:59.038Z,6.47
2023-03-13T07:12:27.021Z,6.57
2023-03-13T07:14:56.441Z,5.57
2023-03-13T07:17:26.802Z,5.93
2023-03-13T07:19:54.800Z,6.60
2023-03-13T07:22:22.789Z,6.10
2023-03-13T07:24:51.065Z,5.40
2023-03-13T07:27:20.935Z,5.53
2023-03-13T07:29:49.073Z,5.53
2023-03-13T07:32:18.767Z,5.10
2023-03-13T07:34:46.999Z,5.90
2023-03-13T07:37:16.038Z,5.93
2023-03-13T07:39:44.630Z,5.80
2023-03-13T07:42:13.222Z,5.00
2023-03-13T07:44:41.184Z,4.70
2023-03-13T07:47:11.836Z,4.50
2023-03-13T07:49:44.019Z,4.30
2023-03-13T07:52:12.108Z,4.43
2023-03-13T07:54:40.067Z,4.30
2023-03-13T07:57:08.361Z,4.80
2023-03-13T07:59:36.466Z,4.50
2023-03-13T08:02:05.374Z,3.90
2023-03-13T08:04:33.858Z,4.20
2023-03-13T08:07:03.234Z,4.13
2023-03-13T08:09:33.807Z,4.20
2023-03-13T08:12:01.889Z,3.90
2023-03-13T08:14:29.885Z,3.77
2023-03-13T08:16:57.887Z,3.77
2023-03-13T08:19:32.274Z,3.80
2023-03-13T08:22:00.309Z,3.50
2023-03-13T08:24:29.903Z,3.20
2023-03-13T08:26:57.901Z,4.00
2023-03-13T08:29:25.901Z,3.40
2023-03-13T08:31:53.887Z,3.33
2023-03-13T08:34:21.902Z,3.40
2023-03-13T08:36:50.082Z,3.37
2023-03-13T08:39:19.656Z,3.57
2023-03-13T08:41:51.756Z,3.20
2023-03-13T08:44:21.326Z,3.47
2023-03-13T08:46:49.579Z,3.30
2023-03-13T08:49:18.330Z,3.03
2023-03-13T08:51:46.344Z,3.43
2023-03-13T08:54:14.354Z,3.90
2023-03-13T08:56:43.570Z,3.30
2023-03-13T08:59:15.511Z,3.50
2023-03-13T09:01:43.560Z,3.33
2023-03-13T09:04:11.577Z,3.47
2023-03-13T09:06:40.168Z,3.60
2023-03-13T09:09:08.752Z,3.23
2023-03-13T09:11:38.227Z,3.50
2023-03-13T09:14:07.081Z,2.57
2023-03-13T09:16:36.818Z,2.97
2023-03-13T09:19:05.379Z,2.60
2023-03-13T09:21:35.195Z,3.50
2023-03-13T09:24:03.982Z,3.10
2023-03-13T09:26:31.976Z,3.10
2023-03-13T09:29:00.455Z,3.30
2023-03-13T09:31:33.032Z,2.93
2023-03-13T09:34:02.990Z,3.00
2023-03-13T09:36:31.363Z,2.60
2023-03-13T09:39:00.680Z,2.77
2023-03-13T09:41:35.076Z,2.80
2023-03-13T09:44:08.585Z,2.20
2023-03-13T09:46:43.401Z,2.60
2023-03-13T09:49:31.511Z,2.57
2023-03-13T09:52:11.965Z,2.73
2023-03-13T09:54:43.634Z,2.53
2023-03-13T09:57:19.250Z,2.27
2023-03-13T09:59:54.596Z,2.50
2023-03-13T10:02:32.024Z,2.60
2023-03-13T10:05:18.103Z,2.37
2023-03-13T10:07:46.179Z,2.30
2023-03-13T10:10:19.109Z,2.77
2023-03-13T10:12:48.829Z,2.10
2023-03-13T10:15:34.906Z,2.40
2023-03-13T10:18:15.137Z,1.80
2023-03-13T10:20:47.969Z,3.63
2023-03-13T10:23:20.857Z,2.90
2023-03-13T10:25:49.328Z,2.20
2023-03-13T10:28:22.451Z,1.90
2023-03-13T10:30:54.223Z,1.80
2023-03-13T10:33:25.956Z,1.67
2023-03-13T10:36:10.311Z,2.30
2023-03-13T10:38:50.409Z,1.60
2023-03-13T10:41:30.896Z,2.00
2023-03-13T10:44:02.239Z,1.97
2023-03-13T10:46:33.086Z,2.00
2023-03-13T10:49:05.835Z,1.97
2023-03-13T10:51:39.411Z,2.07
2023-03-13T10:54:22.637Z,2.00
2023-03-13T10:56:51.314Z,1.83
2023-03-13T10:59:23.740Z,1.57
2023-03-13T11:01:52.982Z,2.00
2023-03-13T11:04:29.696Z,3.33
2023-03-13T11:07:05.275Z,1.83
2023-03-13T11:09:33.794Z,1.50
2023-03-13T11:12:05.586Z,1.60
2023-03-13T11:14:34.954Z,1.93
2023-03-13T11:17:10.193Z,1.93
2023-03-13T11:19:56.067Z,1.90
2023-03-13T11:22:52.009Z,1.93
2023-03-13T11:25:24.603Z,1.77
2023-03-13T11:28:10.933Z,1.83
2023-03-13T11:30:59.836Z,1.57
2023-03-13T11:33:47.420Z,1.97
2023-03-13T11:36:21.997Z,1.50
2023-03-13T11:38:55.153Z,1.67
2023-03-13T11:41:38.820Z,1.50
2023-03-13T11:44:20.870Z,2.00
2023-03-13T11:47:01.572Z,1.70
2023-03-13T11:49:52.694Z,1.70
2023-03-13T11:52:33.099Z,1.47
2023-03-13T11:55:34.856Z,1.70
2023-03-13T11:58:29.835Z,1.93
2023-03-13T12:01:01.627Z,1.53
2023-03-13T12:03:41.127Z,1.40
2023-03-13T12:06:27.889Z,1.70
2023-03-13T12:09:00.926Z,1.80
2023-03-13T12:11:33.927Z,1.50
2023-03-13T12:14:04.822Z,1.47
2023-03-13T12:16:42.596Z,1.27
2023-03-13T12:19:15.333Z,1.30
2023-03-13T12:21:49.794Z,1.30
2023-03-13T12:24:27.947Z,1.40
2023-03-13T12:27:02.580Z,1.07
2023-03-13T12:29:42.984Z,1.40
2023-03-13T12:32:17.982Z,1.60
2023-03-13T12:34:56.604Z,1.90
2023-03-13T12:37:32.171Z,1.60
2023-03-13T12:40:08.646Z,1.60
2023-03-13T12:42:47.048Z,1.60
2023-03-13T12:45:18.662Z,1.43
2023-03-13T12:48:31.502Z,1.80
2023-03-13T12:51:14.308Z,1.60
2023-03-13T12:54:31.799Z,1.60
2023-03-13T12:57:17.388Z,1.60
2023-03-13T12:59:51.332Z,1.63
2023-03-13T13:02:24.036Z,1.83
2023-03-13T13:04:55.620Z,2.00
2023-03-13T13:07:27.450Z,1.53
2023-03-13T13:10:18.646Z,1.80
2023-03-13T13:12:48.096Z,1.80
2023-03-13T13:15:21.680Z,1.50
2023-03-13T13:18:13.760Z,1.60
2023-03-13T13:21:11.728Z,1.47
2023-03-13T13:23:43.760Z,1.60
2023-03-13T13:26:50.650Z,1.73
2023-03-13T13:29:51.892Z,1.43
2023-03-13T13:32:38.100Z,1.77
2023-03-13T13:35:19.872Z,1.30
2023-03-13T13:37:49.521Z,1.40
2023-03-13T13:40:21.966Z,1.27
2023-03-13T13:42:52.379Z,1.70
2023-03-13T13:45:27.845Z,1.50
2023-03-13T13:48:17.414Z,1.57
2023-03-13T13:51:24.003Z,1.50
2023-03-13T13:53:55.795Z,1.30
2023-03-13T13:56:37.510Z,1.27
2023-03-13T13:59:19.668Z,1.83
2023-03-13T14:01:52.768Z,1.50
2023-03-13T14:04:31.349Z,1.60
2023-03-13T14:07:03.572Z,1.40
2023-03-13T14:09:37.374Z,1.67
2023-03-13T14:12:27.563Z,1.40
2023-03-13T14:15:15.621Z,1.40
2023-03-13T14:17:45.869Z,1.20
2023-03-13T14:20:31.672Z,1.30
2023-03-13T14:23:01.859Z,1.57
2023-03-13T14:25:42.562Z,1.23
2023-03-13T14:28:22.956Z,1.40
2023-03-13T14:30:52.566Z,1.70
2023-03-13T14:33:21.155Z,1.27
2023-03-13T14:35:51.372Z,1.70
2023-03-13T14:38:22.814Z,1.90
2023-03-13T14:40:55.351Z,2.07
2023-03-13T14:43:29.236Z,1.60
2023-03-13T14:45:57.242Z,1.70
2023-03-13T14:48:31.633Z,2.03
2023-03-13T14:51:15.268Z,2.17
2023-03-13T14:53:56.471Z,2.13
2023-03-13T14:56:33.857Z,2.30
2023-03-13T14:59:10.227Z,2.30
2023-03-13T15:01:38.310Z,2.33
2023-03-13T15:04:06.528Z,2.60
2023-03-13T15:06:35.867Z,2.43
2023-03-13T15:09:19.996Z,2.80
2023-03-13T15:11:59.023Z,2.80
2023-03-13T15:14:35.065Z,2.60
2023-03-13T15:17:04.196Z,2.70
2023-03-13T15:19:32.404Z,2.50
2023-03-13T15:22:01.774Z,2.30
2023-03-13T15:24:29.977Z,3.73
2023-03-13T15:26:57.964Z,2.50
2023-03-13T15:29:25.975Z,2.50
2023-03-13T15:31:54.110Z,2.53
2023-03-13T15:34:25.322Z,2.13
2023-03-13T15:36:53.416Z,2.30
2023-03-13T15:39:26.188Z,2.00
2023-03-13T15:41:55.051Z,2.50
2023-03-13T15:44:23.042Z,2.17
2023-03-13T15:46:51.300Z,2.97
2023-03-13T15:49:19.301Z,2.83
2023-03-13T15:51:47.564Z,2.63
2023-03-13T15:54:15.888Z,2.40
2023-03-13T15:56:45.325Z,2.60
2023-03-13T15:59:14.111Z,2.50
2023-03-13T16:01:43.262Z,2.80
2023-03-13T16:04:11.940Z,2.70
2023-03-13T16:06:40.155Z,2.80
2023-03-13T16:09:08.632Z,2.80
2023-03-13T16:11:36.683Z,2.83
2023-03-13T16:14:07.078Z,3.07
2023-03-13T16:16:37.802Z,3.37
2023-03-13T16:19:07.598Z,3.40
2023-03-13T16:21:36.145Z,3.63
2023-03-13T16:24:04.325Z,3.80
2023-03-13T16:26:33.358Z,3.63
2023-03-13T16:29:02.370Z,3.77
2023-03-13T16:31:34.663Z,3.80
2023-03-13T16:34:03.453Z,3.70
2023-03-13T16:36:32.744Z,3.60
2023-03-13T16:39:01.544Z,3.67
2023-03-13T16:41:30.405Z,3.50
2023-03-13T16:43:58.554Z,3.80
2023-03-13T16:46:31.059Z,3.60
2023-03-13T16:49:00.548Z,4.30
2023-03-13T16:51:33.277Z,4.43
2023-03-13T16:54:01.918Z,4.10
2023-03-13T16:56:33.714Z,3.80
2023-03-13T16:59:02.707Z,4.40
2023-03-13T17:01:31.392Z,5.13
2023-03-13T17:04:01.183Z,6.57
2023-03-13T17:06:35.768Z,6.57
2023-03-13T17:09:05.743Z,5.73
2023-03-13T17:11:33.758Z,5.80
2023-03-13T17:14:03.759Z,4.97
2023-03-13T17:16:34.760Z,5.50
2023-03-13T17:19:06.486Z,5.90
2023-03-13T17:21:36.645Z,6.93
2023-03-13T17:24:06.988Z,7.17
2023-03-13T17:26:36.815Z,6.43
2023-03-13T17:29:07.609Z,5.50
2023-03-13T17:31:38.509Z,6.27
2023-03-13T17:34:09.271Z,5.47
2023-03-13T17:36:37.703Z,6.50
2023-03-13T17:39:08.715Z,7.57
2023-03-13T17:41:36.799Z,7.63
2023-03-13T17:44:04.968Z,6.83
2023-03-13T17:46:37.959Z,6.93
2023-03-13T17:49:14.087Z,7.10
2023-03-13T17:51:42.448Z,7.13
2023-03-13T17:54:11.271Z,7.00
2023-03-13T17:56:41.807Z,6.93
2023-03-13T17:59:13.914Z,7.70
2023-03-13T18:01:42.434Z,6.07
2023-03-13T18:04:13.024Z,6.57
2023-03-13T18:06:43.398Z,6.53
2023-03-13T18:09:15.491Z,8.43
2023-03-13T18:11:43.708Z,8.57
2023-03-13T18:14:12.634Z,8.90
2023-03-13T18:16:44.271Z,8.83
2023-03-13T18:19:16.209Z,8.67
2023-03-13T18:21:44.913Z,10.10
2023-03-13T18:24:13.917Z,10.17
2023-03-13T18:26:43.096Z,10.03
2023-03-13T18:29:20.403Z,9.23
2023-03-13T18:31:50.657Z,9.80
2023-03-13T18:34:20.142Z,9.40
2023-03-13T18:36:51.179Z,9.27
2023-03-13T18:39:25.230Z,9.80
2023-03-13T18:41:53.488Z,9.63
2023-03-13T18:44:21.730Z,8.83
2023-03-13T18:46:53.445Z,7.60
2023-03-13T18:49:24.767Z,8.33
2023-03-13T18:51:54.718Z,7.80
2023-03-13T18:54:22.710Z,7.60
2023-03-13T18:56:52.685Z,8.43
2023-03-13T18:59:22.317Z,8.83
2023-03-13T19:01:53.983Z,7.57
2023-03-13T19:04:23.388Z,8.07
2023-03-13T19:06:53.225Z,8.60
2023-03-13T19:12:13.466Z,8.17
2023-03-13T19:14:41.537Z,7.57
2023-03-13T19:17:17.906Z,7.27
2023-03-13T19:19:57.335Z,7.40
2023-03-13T19:22:25.907Z,7.40
2023-03-13T19:24:54.439Z,7.60
2023-03-13T19:27:25.259Z,7.23
2023-03-13T19:29:53.388Z,6.73
2023-03-13T19:32:22.887Z,6.40
2023-03-13T19:34:52.720Z,5.97
2023-03-13T19:37:20.887Z,6.00
2023-03-13T19:39:49.208Z,5.37
2023-03-13T19:42:17.235Z,5.67
2023-03-13T19:44:45.520Z,6.00
2023-03-13T19:47:15.883Z,7.50
2023-03-13T19:49:45.423Z,7.83
2023-03-13T19:52:14.930Z,7.30
2023-03-13T19:54:43.036Z,7.57
2023-03-13T19:57:11.977Z,8.23
2023-03-13T19:59:40.172Z,9.17
2023-03-13T20:02:13.089Z,7.83
2023-03-13T20:04:43.404Z,7.17
2023-03-13T20:07:12.996Z,6.90
2023-03-13T20:09:52.078Z,8.83
2023-03-13T20:12:20.450Z,9.07
2023-03-13T20:14:51.231Z,8.37
2023-03-13T20:17:19.422Z,8.57
2023-03-13T20:19:47.464Z,7.93
2023-03-13T20:22:16.031Z,8.20
2023-03-13T20:24:45.475Z,12.67
2023-03-13T20:27:13.512Z,10.80
2023-03-13T20:29:43.998Z,10.33
2023-03-13T20:32:15.159Z,8.83
2023-03-13T20:34:43.251Z,9.10
2023-03-13T20:37:12.944Z,8.40
2023-03-13T20:39:44.664Z,11.53
2023-03-13T20:42:16.638Z,11.30
2023-03-13T20:44:45.710Z,9.73
2023-03-13T20:47:13.754Z,9.60
2023-03-13T20:49:44.725Z,8.73
2023-03-13T20:52:12.687Z,9.93
2023-03-13T20:54:40.690Z,11.17
2023-03-13T20:57:12.974Z,16.70
2023-03-13T20:59:41.180Z,17.97
2023-03-13T21:02:09.839Z,13.73
2023-03-13T21:04:37.980Z,13.80
2023-03-13T21:07:08.139Z,11.17
2023-03-13T21:09:36.419Z,10.07
2023-03-13T21:12:05.171Z,12.03
2023-03-13T21:14:36.353Z,11.23
2023-03-13T21:17:04.827Z,9.50
2023-03-13T21:19:34.083Z,10.70
2023-03-13T21:22:02.304Z,11.43
2023-03-13T21:24:32.896Z,10.43
2023-03-13T21:27:00.903Z,10.83
2023-03-13T21:29:29.139Z,10.70
2023-03-13T21:32:01.984Z,10.70
2023-03-13T21:34:32.970Z,8.70
2023-03-13T21:37:00.951Z,7.73
2023-03-13T21:39:29.228Z,7.33
2023-03-13T21:41:57.212Z,7.17
2023-03-13T21:44:27.052Z,6.77
2023-03-13T21:46:55.495Z,7.43
2023-03-13T21:49:24.958Z,6.47
2023-03-13T21:51:52.970Z,6.83
2023-03-13T21:54:21.004Z,6.87
2023-03-13T21:56:48.958Z,6.20
2023-03-13T21:59:18.035Z,6.00
2023-03-13T22:01:46.247Z,5.87
2023-03-13T22:04:15.662Z,5.60
2023-03-13T22:06:45.143Z,5.40
2023-03-13T22:09:13.683Z,5.80
2023-03-13T22:11:41.664Z,5.67
2023-03-13T22:14:11.120Z,5.63
2023-03-13T22:16:39.208Z,5.40
2023-03-13T22:19:07.544Z,5.83
2023-03-13T22:21:35.548Z,5.50
2023-03-13T22:24:05.147Z,5.07
2023-03-13T22:26:33.095Z,5.40
2023-03-13T22:29:01.076Z,5.17
2023-03-13T22:31:29.037Z,5.10
2023-03-13T22:33:57.036Z,4.77
2023-03-13T22:36:25.239Z,4.43
2023-03-13T22:38:53.232Z,4.50
2023-03-13T22:41:22.552Z,4.37
2023-03-13T22:43:50.533Z,5.13
2023-03-13T22:46:18.677Z,4.53
2023-03-13T22:48:46.641Z,5.20
2023-03-13T22:51:16.169Z,4.90
2023-03-13T22:53:44.348Z,5.00
2023-03-13T22:56:13.518Z,4.83
2023-03-13T22:58:43.161Z,5.07
2023-03-13T23:01:13.069Z,4.47
2023-03-13T23:03:41.318Z,4.10
2023-03-13T23:06:13.488Z,3.80
2023-03-13T23:08:43.827Z,4.67
2023-03-13T23:11:12.205Z,4.47
2023-03-13T23:13:40.203Z,4.93
2023-03-13T23:16:12.786Z,4.77
2023-03-13T23:18:41.294Z,4.47
2023-03-13T23:21:11.436Z,5.33
2023-03-13T23:23:39.972Z,6.60
2023-03-13T23:26:11.164Z,5.87
2023-03-13T23:28:40.631Z,5.87
2023-03-13T23:31:15.103Z,7.50
2023-03-13T23:33:43.496Z,6.93
2023-03-13T23:36:13.706Z,6.50
2023-03-13T23:38:42.025Z,6.70
2023-03-13T23:41:11.622Z,6.23
2023-03-13T23:43:39.768Z,6.37
2023-03-13T23:46:16.534Z,5.90
2023-03-13T23:48:44.607Z,6.37
2023-03-13T23:51:12.961Z,6.43
2023-03-13T23:53:42.343Z,6.20
2023-03-13T23:56:11.082Z,6.50
2023-03-13T23:58:39.060Z,5.87
